The Highlands, Washington
Current Conditions -  °F | °C
As of 6:53 PM on Thursday 27 Nov 2014 (Local Time) from KPAE Reporting Station
Light Rain Light Rain  
Wind Chill: 53°   Ceiling: 1300
Heat Index: 53°   Visibility: 10mi
Dew Point: 50°   Wind: 24mph
Humidity: 89%   Direction: 190°S
Pressure: 29.71"   Gusts: 38mph
Location:  47.7424°N, 122.371°W
Report Text: KPAE 280253Z 19021G33KT 10SM -RA BKN013 BKN024 OVC036 12/10 A2971 RMK AO2 PK WND 19034/0237 RAE0154B20 SLP062 P0000 60001 T01170100 55007
Loading
Personal Weather Stations






























Interactive Weather Map New forecast layout! Learn more

10-Day Weather Forecast

Advertisements
Track Severe Weather on mobile